createdAt,value
2023-03-02T00:01:49.128Z,14.53
2023-03-02T00:04:31.303Z,14.27
2023-03-02T00:07:03.533Z,13.30
2023-03-02T00:09:30.503Z,13.97
2023-03-02T00:11:57.263Z,14.27
2023-03-02T00:14:23.905Z,12.33
2023-03-02T00:16:50.427Z,11.37
2023-03-02T00:19:16.937Z,10.93
2023-03-02T00:21:43.649Z,10.67
2023-03-02T00:24:10.208Z,11.70
2023-03-02T00:26:37.325Z,10.83
2023-03-02T00:29:04.156Z,11.37
2023-03-02T00:31:30.938Z,11.03
2023-03-02T00:33:57.460Z,11.80
2023-03-02T00:36:24.003Z,13.90
2023-03-02T00:38:54.007Z,16.90
2023-03-02T00:41:21.079Z,14.27
2023-03-02T00:43:49.001Z,13.97
2023-03-02T00:46:21.730Z,14.80
2023-03-02T00:48:48.782Z,15.43
2023-03-02T00:51:16.173Z,14.67
2023-03-02T00:53:43.023Z,13.30
2023-03-02T00:56:09.952Z,13.70
2023-03-02T00:58:36.954Z,13.93
2023-03-02T01:01:12.473Z,13.53
2023-03-02T01:03:39.535Z,12.97
2023-03-02T01:06:15.097Z,13.00
2023-03-02T01:08:41.594Z,11.27
2023-03-02T01:11:21.167Z,12.30
2023-03-02T01:13:49.471Z,12.03
2023-03-02T01:16:16.077Z,11.60
2023-03-02T01:18:42.745Z,11.23
2023-03-02T01:21:13.592Z,11.77
2023-03-02T01:23:40.094Z,12.53
2023-03-02T01:26:07.150Z,11.53
2023-03-02T01:28:33.646Z,11.77
2023-03-02T01:31:01.899Z,12.97
2023-03-02T01:33:28.592Z,12.77
2023-03-02T01:35:55.134Z,12.67
2023-03-02T01:38:21.661Z,11.33
2023-03-02T01:40:48.160Z,11.60
2023-03-02T01:43:16.313Z,11.60
2023-03-02T01:45:59.869Z,11.47
2023-03-02T01:48:44.234Z,11.00
2023-03-02T01:51:19.439Z,10.60
2023-03-02T01:53:50.385Z,10.30
2023-03-02T01:56:26.026Z,11.80
2023-03-02T01:59:02.789Z,11.43
2023-03-02T02:01:32.449Z,10.60
2023-03-02T02:04:00.843Z,11.17
2023-03-02T02:06:40.239Z,11.17
2023-03-02T02:09:12.757Z,10.73
2023-03-02T02:11:39.237Z,11.10
2023-03-02T02:14:06.420Z,11.57
2023-03-02T02:16:36.048Z,11.10
2023-03-02T02:19:14.678Z,10.97
2023-03-02T02:21:41.226Z,10.13
2023-03-02T02:24:25.209Z,10.97
2023-03-02T02:26:55.176Z,10.50
2023-03-02T02:29:35.246Z,10.90
2023-03-02T02:32:29.511Z,9.57
2023-03-02T02:35:13.906Z,10.30
2023-03-02T02:37:50.310Z,9.83
2023-03-02T02:41:12.284Z,9.70
2023-03-02T02:43:38.766Z,8.37
2023-03-02T02:46:05.409Z,10.13
2023-03-02T02:48:32.739Z,10.17
2023-03-02T02:50:59.925Z,10.80
2023-03-02T02:53:44.308Z,11.13
2023-03-02T02:56:13.304Z,10.60
2023-03-02T02:58:46.447Z,9.90
2023-03-02T03:01:18.815Z,10.10
2023-03-02T03:03:58.263Z,9.67
2023-03-02T03:06:29.772Z,10.70
2023-03-02T03:09:00.346Z,9.90
2023-03-02T03:11:31.568Z,10.00
2023-03-02T03:14:09.489Z,10.43
2023-03-02T03:16:38.367Z,10.40
2023-03-02T03:21:25.920Z,10.17
2023-03-02T03:23:52.943Z,9.90
2023-03-02T03:26:19.834Z,10.10
2023-03-02T03:28:46.573Z,9.10
2023-03-02T03:31:13.111Z,9.43
2023-03-02T03:33:39.596Z,10.70
2023-03-02T03:36:06.769Z,10.37
2023-03-02T03:38:34.027Z,10.10
2023-03-02T03:41:00.975Z,9.70
2023-03-02T03:43:27.469Z,10.47
2023-03-02T03:45:54.015Z,10.73
2023-03-02T03:48:20.560Z,9.73
2023-03-02T03:50:47.039Z,10.43
2023-03-02T03:53:13.521Z,9.67
2023-03-02T03:55:40.129Z,9.63
2023-03-02T03:58:06.626Z,9.17
2023-03-02T04:00:33.209Z,10.33
2023-03-02T04:02:59.807Z,10.47
2023-03-02T04:05:26.289Z,9.37
2023-03-02T04:07:52.958Z,9.37
2023-03-02T04:10:19.657Z,9.07
2023-03-02T04:12:46.152Z,8.90
2023-03-02T04:15:15.906Z,8.80
2023-03-02T04:17:44.138Z,9.13
2023-03-02T04:20:16.441Z,8.53
2023-03-02T04:22:46.329Z,9.00
2023-03-02T04:25:19.009Z,9.33
2023-03-02T04:27:48.239Z,9.47
2023-03-02T04:30:19.022Z,9.40
2023-03-02T04:32:45.487Z,11.17
2023-03-02T04:35:13.642Z,11.13
2023-03-02T04:37:42.066Z,12.73
2023-03-02T04:40:11.287Z,12.73
2023-03-02T04:42:37.773Z,14.90
2023-03-02T04:45:05.165Z,14.60
2023-03-02T04:47:31.660Z,14.57
2023-03-02T04:49:58.125Z,12.97
2023-03-02T04:52:24.759Z,11.87
2023-03-02T04:54:51.843Z,11.60
2023-03-02T04:57:18.316Z,11.00
2023-03-02T04:59:44.784Z,11.93
2023-03-02T05:02:11.391Z,11.03
2023-03-02T05:04:39.710Z,9.67
2023-03-02T05:07:06.232Z,9.63
2023-03-02T05:09:32.769Z,11.67
2023-03-02T05:12:00.664Z,12.27
2023-03-02T05:14:27.835Z,13.60
2023-03-02T05:16:54.389Z,13.63
2023-03-02T05:19:21.242Z,11.23
2023-03-02T05:21:47.727Z,10.93
2023-03-02T05:24:14.396Z,10.37
2023-03-02T05:26:41.419Z,9.60
2023-03-02T05:29:07.952Z,10.23
2023-03-02T05:31:39.009Z,9.53
2023-03-02T05:34:09.249Z,10.37
2023-03-02T05:36:36.239Z,13.50
2023-03-02T05:39:05.474Z,12.50
2023-03-02T05:41:31.965Z,12.77
2023-03-02T05:43:58.788Z,12.53
2023-03-02T05:46:25.782Z,10.57
2023-03-02T05:48:52.488Z,11.00
2023-03-02T05:51:19.196Z,10.53
2023-03-02T05:53:45.912Z,10.73
2023-03-02T05:56:12.573Z,11.03
2023-03-02T05:58:39.102Z,11.63
2023-03-02T06:01:10.708Z,11.33
2023-03-02T06:03:37.212Z,11.13
2023-03-02T06:06:04.040Z,10.40
2023-03-02T06:08:30.748Z,10.27
2023-03-02T06:10:57.276Z,10.30
2023-03-02T06:13:23.778Z,13.83
2023-03-02T06:15:50.312Z,11.67
2023-03-02T06:18:16.763Z,11.20
2023-03-02T06:20:43.302Z,10.63
2023-03-02T06:23:10.913Z,10.57
2023-03-02T06:25:40.532Z,10.53
2023-03-02T06:28:07.149Z,11.27
2023-03-02T06:30:33.648Z,11.03
2023-03-02T06:33:00.900Z,10.90
2023-03-02T06:35:28.216Z,10.87
2023-03-02T06:37:54.801Z,10.77
2023-03-02T06:40:21.428Z,12.20
2023-03-02T06:42:48.678Z,11.13
2023-03-02T06:45:15.896Z,10.83
2023-03-02T06:47:42.452Z,10.40
2023-03-02T06:50:10.538Z,10.57
2023-03-02T06:52:37.063Z,12.20
2023-03-02T06:55:04.657Z,11.57
2023-03-02T06:57:33.226Z,10.70
2023-03-02T07:00:11.883Z,11.43
2023-03-02T07:02:38.375Z,14.07
2023-03-02T07:05:06.537Z,16.43
2023-03-02T07:07:33.030Z,15.73
2023-03-02T07:09:59.522Z,14.20
2023-03-02T07:12:26.221Z,13.67
2023-03-02T07:14:52.703Z,13.97
2023-03-02T07:17:19.169Z,13.83
2023-03-02T07:19:45.669Z,12.80
2023-03-02T07:22:12.168Z,13.23
2023-03-02T07:24:38.663Z,13.70
2023-03-02T07:27:05.133Z,14.30
2023-03-02T07:29:31.929Z,13.63
2023-03-02T07:32:01.449Z,14.60
2023-03-02T07:34:28.108Z,14.23
2023-03-02T07:36:54.801Z,14.67
2023-03-02T07:39:21.328Z,14.13
2023-03-02T07:41:47.984Z,14.67
2023-03-02T07:44:15.099Z,15.43
2023-03-02T07:46:41.726Z,15.17
2023-03-02T07:49:08.239Z,15.03
2023-03-02T07:51:34.954Z,14.87
2023-03-02T07:54:04.025Z,14.67
2023-03-02T07:56:30.524Z,14.73
2023-03-02T07:58:57.026Z,14.57
2023-03-02T08:01:23.562Z,14.90
2023-03-02T08:03:50.088Z,14.80
2023-03-02T08:06:16.961Z,15.43
2023-03-02T08:08:43.558Z,18.87
2023-03-02T08:11:16.372Z,15.60
2023-03-02T08:13:43.977Z,16.00
2023-03-02T08:16:13.839Z,14.97
2023-03-02T08:18:41.495Z,14.90
2023-03-02T08:21:18.485Z,14.93
2023-03-02T08:23:45.740Z,14.40
2023-03-02T08:26:17.073Z,14.90
2023-03-02T08:28:44.236Z,15.60
2023-03-02T08:31:12.367Z,14.67
2023-03-02T08:33:39.018Z,14.67
2023-03-02T08:36:14.549Z,15.80
2023-03-02T08:38:41.909Z,15.20
2023-03-02T08:41:13.368Z,15.27
2023-03-02T08:43:42.451Z,15.10
2023-03-02T08:46:12.618Z,14.53
2023-03-02T08:48:39.304Z,15.27
2023-03-02T08:51:14.239Z,15.97
2023-03-02T08:53:46.786Z,15.00
2023-03-02T08:56:20.403Z,15.40
2023-03-02T08:58:48.735Z,15.10
2023-03-02T09:01:25.815Z,14.23
2023-03-02T09:03:52.625Z,13.17
2023-03-02T09:06:19.790Z,13.50
2023-03-02T09:08:48.981Z,12.60
2023-03-02T09:11:15.648Z,13.07
2023-03-02T09:13:42.840Z,13.87
2023-03-02T09:16:09.690Z,14.13
2023-03-02T09:18:36.508Z,14.43
2023-03-02T09:21:04.411Z,13.87
2023-03-02T09:23:32.327Z,15.47
2023-03-02T09:25:59.174Z,14.40
2023-03-02T09:28:25.775Z,15.37
2023-03-02T09:31:01.973Z,16.83
2023-03-02T09:33:29.855Z,15.00
2023-03-02T09:35:56.525Z,14.10
2023-03-02T09:38:23.981Z,13.73
2023-03-02T09:48:39.055Z,12.90
2023-03-02T09:51:31.961Z,10.77
2023-03-02T09:54:11.917Z,10.73
2023-03-02T09:56:54.882Z,11.63
2023-03-02T09:59:44.492Z,12.43
2023-03-02T10:03:55.617Z,12.17
2023-03-02T10:06:22.177Z,10.80
2023-03-02T10:08:50.125Z,10.47
2023-03-02T10:12:08.757Z,11.30
2023-03-02T10:16:38.257Z,9.70
2023-03-02T10:19:31.691Z,10.20
2023-03-02T10:22:58.428Z,9.47
2023-03-02T10:25:47.892Z,9.33
2023-03-02T10:28:36.742Z,10.47
2023-03-02T10:31:26.302Z,9.77
2023-03-02T10:33:53.113Z,9.10
2023-03-02T10:36:25.975Z,9.67
2023-03-02T10:38:55.418Z,9.63
2023-03-02T10:42:04.102Z,10.20
2023-03-02T10:44:58.561Z,10.70
2023-03-02T10:47:28.586Z,10.17
2023-03-02T10:49:57.216Z,11.10
2023-03-02T10:52:28.587Z,10.40
2023-03-02T10:55:13.462Z,8.97
2023-03-02T10:57:45.341Z,9.47
2023-03-02T11:00:27.502Z,10.10
2023-03-02T11:03:19.697Z,9.70
2023-03-02T11:05:47.032Z,9.83
2023-03-02T11:08:26.746Z,10.43
2023-03-02T11:11:04.284Z,9.33
2023-03-02T11:13:37.561Z,9.90
2023-03-02T11:16:31.258Z,10.13
2023-03-02T11:19:44.564Z,10.00
2023-03-02T11:22:38.999Z,9.17
2023-03-02T11:25:15.847Z,8.53
2023-03-02T11:27:44.407Z,7.53
2023-03-02T11:30:21.894Z,7.90
2023-03-02T11:33:16.320Z,7.80
2023-03-02T11:36:02.102Z,8.47
2023-03-02T11:38:33.376Z,8.57
2023-03-02T11:43:23.227Z,9.20
2023-03-02T11:46:06.681Z,8.70
2023-03-02T11:48:48.527Z,9.63
2023-03-02T11:51:23.978Z,10.13
2023-03-02T11:54:03.912Z,10.13
2023-03-02T11:56:36.017Z,9.83
2023-03-02T11:59:13.075Z,13.80
2023-03-02T12:01:41.339Z,11.23
2023-03-02T12:05:01.725Z,9.03
2023-03-02T12:07:28.346Z,9.00
2023-03-02T12:10:41.058Z,9.83
2023-03-02T12:13:32.126Z,21.43
2023-03-02T12:15:59.340Z,14.87
2023-03-02T12:19:10.688Z,11.37
2023-03-02T12:21:55.991Z,10.70
2023-03-02T12:24:35.985Z,11.40
2023-03-02T12:27:26.975Z,9.53
2023-03-02T12:30:27.911Z,9.23
2023-03-02T12:33:27.520Z,8.77
2023-03-02T12:36:11.521Z,9.60
2023-03-02T12:38:43.198Z,10.37
2023-03-02T12:41:50.380Z,9.83
2023-03-02T12:47:51.010Z,9.80
2023-03-02T12:50:29.450Z,8.33
2023-03-02T12:53:19.465Z,9.00
2023-03-02T12:55:46.454Z,9.70
2023-03-02T12:58:50.921Z,10.30
2023-03-02T13:01:27.841Z,9.27
2023-03-02T13:03:54.623Z,8.30
2023-03-02T13:06:24.160Z,8.37
2023-03-02T13:08:54.773Z,8.33
2023-03-02T13:11:31.824Z,8.97
2023-03-02T13:14:03.018Z,8.43
2023-03-02T13:16:33.674Z,8.77
2023-03-02T13:19:14.431Z,9.03
2023-03-02T13:21:40.962Z,8.53
2023-03-02T13:24:43.316Z,8.03
2023-03-02T13:27:20.001Z,7.77
2023-03-02T13:29:48.104Z,8.60
2023-03-02T13:32:38.324Z,7.53
2023-03-02T13:35:22.128Z,7.87
2023-03-02T13:38:02.112Z,7.93
2023-03-02T13:40:42.334Z,7.90
2023-03-02T13:45:32.040Z,7.30
2023-03-02T13:48:16.525Z,8.00
2023-03-02T13:51:02.486Z,8.27
2023-03-02T13:53:33.963Z,8.73
2023-03-02T13:56:00.676Z,8.27
2023-03-02T13:58:30.155Z,9.23
2023-03-02T14:00:56.780Z,8.70
2023-03-02T14:03:30.494Z,8.00
2023-03-02T14:05:58.944Z,8.63
2023-03-02T14:08:25.876Z,8.47
2023-03-02T14:10:59.167Z,8.83
2023-03-02T14:13:41.174Z,8.93
2023-03-02T14:16:14.046Z,8.80
2023-03-02T14:18:50.276Z,9.43
2023-03-02T14:21:21.361Z,11.23
2023-03-02T14:23:48.621Z,9.70
2023-03-02T14:26:57.515Z,9.73
2023-03-02T14:29:33.686Z,9.07
2023-03-02T14:32:03.916Z,9.13
2023-03-02T14:34:30.453Z,9.57
2023-03-02T14:37:02.096Z,9.13
2023-03-02T14:39:41.861Z,9.00
2023-03-02T14:42:14.991Z,9.00
2023-03-02T14:44:43.251Z,8.87
2023-03-02T14:47:10.111Z,9.17
2023-03-02T14:49:37.539Z,9.40
2023-03-02T14:52:26.231Z,8.30
2023-03-02T14:54:57.569Z,8.57
2023-03-02T14:57:28.006Z,7.60
2023-03-02T14:59:55.962Z,8.10
2023-03-02T15:02:26.132Z,8.77
2023-03-02T15:04:56.608Z,8.47
2023-03-02T15:07:27.384Z,8.77
2023-03-02T15:09:56.248Z,8.50
2023-03-02T15:12:22.786Z,8.87
2023-03-02T15:14:49.277Z,8.63
2023-03-02T15:17:16.707Z,8.77
2023-03-02T15:19:43.199Z,8.23
2023-03-02T15:22:11.282Z,8.43
2023-03-02T15:24:37.736Z,8.87
2023-03-02T15:27:04.277Z,8.80
2023-03-02T15:29:30.759Z,8.90
2023-03-02T15:31:57.353Z,8.37
2023-03-02T15:34:23.912Z,8.67
2023-03-02T15:36:50.362Z,8.57
2023-03-02T15:39:17.042Z,8.70
2023-03-02T15:41:43.793Z,9.07
2023-03-02T15:44:21.181Z,8.87
2023-03-02T15:46:54.319Z,9.90
2023-03-02T15:49:23.661Z,10.17
2023-03-02T15:51:56.686Z,9.07
2023-03-02T15:54:27.167Z,10.10
2023-03-02T15:56:54.166Z,9.97
2023-03-02T15:59:24.083Z,10.23
2023-03-02T16:01:50.780Z,10.87
2023-03-02T16:04:17.869Z,9.73
2023-03-02T16:06:44.459Z,9.57
2023-03-02T16:09:11.308Z,10.93
2023-03-02T16:11:37.818Z,10.53
2023-03-02T16:14:04.369Z,10.53
2023-03-02T16:16:30.947Z,10.90
2023-03-02T16:18:58.587Z,10.40
2023-03-02T16:21:27.801Z,9.30
2023-03-02T16:24:02.248Z,9.17
2023-03-02T16:26:29.258Z,10.30
2023-03-02T16:28:55.732Z,8.90
2023-03-02T16:31:25.812Z,9.27
2023-03-02T16:33:54.919Z,11.47
2023-03-02T16:36:22.452Z,14.37
2023-03-02T16:38:48.975Z,14.47
2023-03-02T16:41:20.816Z,14.80
2023-03-02T16:43:54.568Z,14.80
2023-03-02T16:46:24.643Z,14.33
2023-03-02T16:48:51.695Z,13.27
2023-03-02T16:51:19.441Z,13.43
2023-03-02T16:53:46.760Z,13.13
2023-03-02T16:56:13.591Z,12.37
2023-03-02T16:58:41.219Z,13.30
2023-03-02T17:01:14.236Z,12.67
2023-03-02T17:03:41.852Z,12.57
2023-03-02T17:06:11.485Z,9.50
2023-03-02T17:08:38.709Z,10.73
2023-03-02T17:11:05.813Z,12.00
2023-03-02T17:13:33.133Z,13.00
2023-03-02T17:16:00.219Z,13.33
2023-03-02T17:18:27.937Z,12.83
2023-03-02T17:20:56.727Z,12.30
2023-03-02T17:23:27.196Z,15.43
2023-03-02T17:25:55.270Z,17.77
2023-03-02T17:28:21.940Z,17.30
2023-03-02T17:30:51.210Z,16.30
2023-03-02T17:33:17.790Z,16.27
2023-03-02T17:35:45.378Z,13.37
2023-03-02T17:38:11.869Z,13.47
2023-03-02T17:40:38.340Z,13.13
2023-03-02T17:43:04.859Z,14.10
2023-03-02T17:45:31.338Z,13.60
2023-03-02T17:47:58.709Z,13.83
2023-03-02T17:50:26.787Z,13.50
2023-03-02T17:52:54.554Z,13.70
2023-03-02T17:55:21.094Z,13.47
2023-03-02T17:57:47.622Z,13.47
2023-03-02T18:00:18.938Z,14.40
2023-03-02T18:02:45.593Z,13.43
2023-03-02T18:05:12.359Z,12.50
2023-03-02T18:07:38.837Z,13.47
2023-03-02T18:10:06.684Z,13.83
2023-03-02T18:12:34.420Z,13.20
2023-03-02T18:15:00.917Z,14.60
2023-03-02T18:17:27.618Z,14.63
2023-03-02T18:19:54.107Z,15.27
2023-03-02T18:22:21.325Z,17.13
2023-03-02T18:24:49.610Z,18.37
2023-03-02T18:27:16.129Z,18.17
2023-03-02T18:29:42.629Z,15.00
2023-03-02T18:32:10.637Z,14.23
2023-03-02T18:34:37.183Z,13.80
2023-03-02T18:37:03.641Z,14.67
2023-03-02T18:39:30.163Z,16.27
2023-03-02T18:41:56.632Z,13.00
2023-03-02T18:44:27.118Z,13.07
2023-03-02T18:46:54.347Z,13.10
2023-03-02T18:49:20.878Z,15.20
2023-03-02T18:51:47.800Z,14.00
2023-03-02T18:54:14.472Z,13.47
2023-03-02T18:56:40.960Z,14.27
2023-03-02T18:59:08.782Z,13.53
2023-03-02T19:01:36.034Z,12.77
2023-03-02T19:04:02.819Z,12.97
2023-03-02T19:06:29.298Z,12.80
2023-03-02T19:08:55.908Z,12.47
2023-03-02T19:11:22.443Z,13.43
2023-03-02T19:13:48.927Z,12.27
2023-03-02T19:16:17.258Z,13.67
2023-03-02T19:18:44.780Z,10.93
2023-03-02T19:21:11.246Z,11.40
2023-03-02T19:23:37.770Z,10.93
2023-03-02T19:26:04.567Z,11.30
2023-03-02T19:28:33.085Z,11.53
2023-03-02T19:31:08.076Z,11.30
2023-03-02T19:33:35.340Z,10.37
2023-03-02T19:36:01.982Z,12.20
2023-03-02T19:38:28.474Z,12.43
2023-03-02T19:40:59.839Z,12.43
2023-03-02T19:43:27.785Z,11.57
2023-03-02T19:45:54.878Z,12.90
2023-03-02T19:48:21.735Z,12.27
2023-03-02T19:50:48.498Z,12.73
2023-03-02T19:53:16.312Z,11.90
2023-03-02T19:55:43.541Z,11.90
2023-03-02T19:58:16.038Z,13.03
2023-03-02T20:00:44.247Z,12.87
2023-03-02T20:03:11.479Z,11.33
2023-03-02T20:05:38.976Z,12.27
2023-03-02T20:08:07.087Z,13.87
2023-03-02T20:10:44.326Z,13.70
2023-03-02T20:13:11.988Z,13.67
2023-03-02T20:15:45.796Z,13.47
2023-03-02T20:18:18.006Z,14.30
2023-03-02T20:20:46.349Z,14.30
2023-03-02T20:23:14.316Z,13.80
2023-03-02T20:25:41.109Z,14.13
2023-03-02T20:28:12.673Z,13.70
2023-03-02T20:30:51.781Z,14.10
2023-03-02T20:33:24.802Z,15.03
2023-03-02T20:35:52.912Z,14.00
2023-03-02T20:38:29.282Z,16.00
2023-03-02T20:40:56.045Z,13.53
2023-03-02T20:43:22.620Z,14.57
2023-03-02T20:45:49.144Z,14.43
2023-03-02T20:48:15.921Z,13.77
2023-03-02T20:50:43.004Z,14.93
2023-03-02T20:53:10.701Z,14.97
2023-03-02T20:55:37.171Z,15.57
2023-03-02T20:58:04.682Z,15.20
2023-03-02T21:00:34.136Z,13.37
2023-03-02T21:03:00.651Z,14.07
2023-03-02T21:05:28.480Z,13.77
2023-03-02T21:07:55.641Z,14.43
2023-03-02T21:10:31.581Z,13.73
2023-03-02T21:12:58.348Z,12.97
2023-03-02T21:15:26.428Z,13.10
2023-03-02T21:17:58.038Z,13.70
2023-03-02T21:20:30.428Z,23.30
2023-03-02T21:22:57.108Z,21.33
2023-03-02T21:25:23.690Z,23.47
2023-03-02T21:27:50.167Z,23.60
2023-03-02T21:30:22.157Z,18.03
2023-03-02T21:32:49.421Z,14.13
2023-03-02T21:35:19.862Z,13.00
2023-03-02T21:37:53.760Z,13.50
2023-03-02T21:40:27.020Z,12.97
2023-03-02T21:42:53.719Z,12.70
2023-03-02T21:45:22.023Z,12.37
2023-03-02T21:47:50.205Z,13.80
2023-03-02T21:50:23.132Z,13.43
2023-03-02T21:52:49.834Z,16.03
2023-03-02T21:55:16.403Z,16.17
2023-03-02T21:57:43.133Z,14.97
2023-03-02T22:00:21.669Z,15.67
2023-03-02T22:02:49.769Z,15.20
2023-03-02T22:05:17.614Z,13.37
2023-03-02T22:07:44.261Z,13.60
2023-03-02T22:10:49.867Z,13.57
2023-03-02T22:13:24.985Z,12.50
2023-03-02T22:16:18.024Z,12.63
2023-03-02T22:18:46.945Z,12.83
2023-03-02T22:21:35.517Z,13.40
2023-03-02T22:24:21.639Z,12.37
2023-03-02T22:27:51.487Z,13.33
2023-03-02T22:30:23.284Z,12.33
2023-03-02T22:32:49.767Z,13.37
2023-03-02T22:35:26.253Z,12.37
2023-03-02T22:38:06.120Z,12.47
2023-03-02T22:40:36.015Z,13.30
2023-03-02T22:43:35.720Z,13.00
2023-03-02T22:46:19.313Z,12.97
2023-03-02T22:48:54.782Z,13.03
2023-03-02T22:51:27.321Z,12.97
2023-03-02T22:54:00.350Z,13.00
2023-03-02T22:56:37.541Z,12.17
2023-03-02T22:59:27.939Z,12.53
2023-03-02T23:02:01.041Z,12.50
2023-03-02T23:04:34.515Z,13.53
2023-03-02T23:07:13.098Z,13.63
2023-03-02T23:09:39.593Z,13.80
2023-03-02T23:12:24.954Z,12.67
2023-03-02T23:14:57.301Z,13.20
2023-03-02T23:17:39.892Z,12.87
2023-03-02T23:20:12.005Z,13.30
2023-03-02T23:22:39.133Z,13.93
2023-03-02T23:25:09.104Z,13.17
2023-03-02T23:27:35.748Z,13.07
2023-03-02T23:30:03.496Z,13.87
2023-03-02T23:32:30.035Z,13.43
2023-03-02T23:34:56.638Z,14.47
2023-03-02T23:37:23.116Z,13.73
2023-03-02T23:39:49.585Z,14.30
2023-03-02T23:42:16.073Z,13.53
2023-03-02T23:44:42.536Z,14.23
2023-03-02T23:47:09.015Z,13.97
2023-03-02T23:49:35.479Z,13.63
2023-03-02T23:52:02.811Z,14.17
2023-03-02T23:54:29.274Z,14.73
2023-03-02T23:56:55.749Z,14.20
2023-03-02T23:59:22.354Z,14.87
